*** The Vicarage Weather Feed ***

Nearby METAR Reports


 

CYOO - Oshawa, Municipal Airport, Ontario, Canada
Distance from station: NW 3.2km
Updated: 10/07/2020 21:21
Overcast
Overcast
 Wind from ESE
Wind: ESE 9 km/h
Temperature: 28°C
Heat Index: 30°C
Dew Point: 21°C
Humidity: 66%
Barometer: 1006.1 hPa
Clouds: Overcast
Visibility: 14 km
Cloud details: Mostly cloudy 1829 m
Mostly cloudy 2377 m
Overcast 4572 m
2020/07/11 01:21 CYOO 110121Z AUTO 12005KT 080V160 9SM BKN060 BKN078 OVC150 28/21 A2971 RMK LTNG DIST W NW SLP060 DENSITY ALT 2300FT
CYKZ - Toronto, Buttonville, Municipal Airport, Ontario, Canada
Distance from station: W 39.75km
Updated: 03/01/2019 04:00
NOT Current
Partly cloudy
Partly cloudy
 Wind from WSW
Wind: WSW 7 km/h
Temperature: -3°C
Wind Chill: -6°C
Dew Point: -5°C
Humidity: 86%
Barometer: 1010.8 hPa
Clouds: Partly cloudy
Visibility: 24 km
Cloud details: Partly cloudy 1219 m
2019/01/03 09:00 CYKZ 030900Z 25004KT 15SM SCT040 M03/M05 A2985 RMK SC3 LAST STFD OBS FAREWELL SLP118
 
CXTO - Toronto City, Buttonville, Ontario, Canada
Distance from station: WSW 49km
Updated: 10/07/2020 21:00

 
Temperature: 28°C
Heat Index: 29°C
Dew Point: 20°C
Humidity: 62%
2020/07/11 01:00 CXTO 110100Z AUTO 28/20 RMK AO1 SLP060 T02790201 56013
CYTZ - Toronto City, Island Airport, Ontario, Canada
Distance from station: SW 51.7km
Updated: 10/07/2020 21:07
Partly cloudy
Partly cloudy
 Wind from varies
Wind: varies 28 km/h, Gust: 39 km/h
Temperature: 27°C
Heat Index: 30°C
Dew Point: 23°C
Humidity: 79%
Barometer: 1006.1 hPa
Clouds: Partly cloudy
Visibility: 14 km
Cloud details: Partly cloudy 2438 m
2020/07/11 01:07 CYTZ 110107Z AUTO VRB15G21KT 9SM SCT080 27/23 A2971 RMK LTNG DIST ALQDS PRESRR SLP061 DENSITY ALT 1800FT
 
CYPQ - Toronto, Peterborough Airport, Ontario, Canada
Distance from station: NE 54km
Updated: 10/07/2020 21:00
Clear
Clear
 Wind from E
Wind: E 7 km/h
Temperature: 27°C
Heat Index: 29°C
Dew Point: 21°C
Humidity: 70%
Barometer: 1007.1 hPa
Clouds: Clear
Visibility: 14 km
2020/07/11 01:00 CYPQ 110100Z AUTO 10004KT 9SM CLR 27/21 A2974 RMK SLP068 DENSITY ALT 2300FT
CWNC - Cobourg, (mars), Ontario, Canada
Distance from station: E 57km
Updated: 10/07/2020 21:00

 Wind from E
Wind: E 9 km/h
Temperature: 27°C
Heat Index: 30°C
Dew Point: 23°C
Humidity: 79%
2020/07/11 01:00 CWNC 110100Z AUTO 10005KT 27/23 RMK AO1 SLP066 T02670227 56009
 
CYYZ - Toronto, Lester Pearson Airport, Ontario, Canada
Distance from station: W 65.5km
Updated: 10/07/2020 21:05
Light thunderstorm, Rain, Mostly cloudy
Light thunderstorm, Rain, Mostly cloudy
 Wind from W
Wind: W 31 km/h, Gust: 48 km/h
Temperature: 25°C
Dew Point: 20°C
Humidity: 74%
Barometer: 1008.1 hPa
Summary: Light thunderstorm, Rain
Clouds: Mostly cloudy
Visibility: 19 km
Cloud details: Partly cloudy 853 m
Mostly cloudy 1676 m
Mostly cloudy 2743 m
Mostly cloudy 7620 m
2020/07/11 01:05 CYYZ 110105Z 26017G26KT 12SM -TSRA SCT028CB BKN055 BKN090 BKN250 25/20 A2977 RMK CB3SC2AC1CI1 FRQ LTGIC SW-NW PRESRR SLP078 DENSITY ALT 2100FT
CWGL - Lagoon City, Ontario, Canada
Distance from station: NNW 74km
Updated: 10/07/2020 21:00

 Wind from NNE
Wind: NNE 13 km/h
Temperature: 24°C
Dew Point: 20°C
Humidity: 78%
2020/07/11 01:00 CWGL 110100Z AUTO 03007KT 24/20 RMK AO1 SLP056 T02400204 58002
 
CWWZ - Port Weller Airport, Ontario, Canada
Distance from station: SSW 77km
Updated: 10/07/2020 21:00

 Wind from SE
Wind: SE 9 km/h
Temperature: 26°C
Dew Point: 22°C
Humidity: 79%
2020/07/11 01:00 CWWZ 110100Z AUTO 14005KT 26/22 RMK AO1 SLP049 T02620218 56009
CYSN - St.Catharines Niagara Airport, Ontario, Canada
Distance from station: SSW 81km
Updated: 10/07/2020 21:00
Mostly cloudy
Mostly cloudy
 Wind from ESE
Wind: ESE 6 km/h
Temperature: 26°C
Dew Point: 20°C
Humidity: 70%
Barometer: 1005.1 hPa
Clouds: Mostly cloudy
Visibility: 16 km
Cloud details: Mostly cloudy 1219 m
2020/07/11 01:00 CYSN 110100Z 12003KT 110V190 10SM BKN040 26/20 A2968 RMK SC6 LAST STFD OBS/NEXT 11 1100UTC SLP050 DENSITY ALT 2000FT
This data is offered only as a general guide to local weather conditions. It should not be relied upon in lieu of officially disseminated weather information for determining possible risk to persons or property. This site, including all information contained therein, is made available as is without warranties of any kind, either express or implied. The Vicarage Weather Feed© includes links to other sites for user convenience only. The content of any linked third-party site is not controlled by The Vicarage Weather Feed©. Access to any third-party website through The Vicarage Weather Feed©, regardless of whether or not the third-party site is a linked site, is entirely at the users own risk. Externally sourced content or material is excluded from The Vicarage Weather Feed© copyright and is the copyright and property of the respective provider. Skywarn® and the Skywarn® logo are registered trademarks of the National Oceanic and Atmospheric Administration, used with permission.